F/v_l'omerta — FHXG — position and weather

sailwx.info

Track history (hours):
 
Tides and Currents Weather Stations Pressure Air Temp Water Temp Dewpoint Dewpoint Depression Visibility Wind Speed Wind Dir Waves Ship Positions

F/v_l'omerta

Last reported at 2015-Sep-02 10:25 UTC. Time now 2015-Sep-02 14:51 UTC.
Position N 46°30' W 001°47'.

Length 18 m.

Type: Fishing. MMSI: 227903000.

Date/timePositionNaut miles runAvg speedWind from/ knotsBaromVisibWave heightAir tempDewpointWater temp
2015-Sep-02 10:25N 46°30' W 001°47'0 0.0
2015-Sep-02 09:33N 46°30' W 001°47'0 0.0
2015-Sep-02 08:33N 46°30' W 001°47'0 0.0
2015-Sep-02 07:33N 46°30' W 001°47'0 0.0
2015-Sep-01 11:33N 46°30' W 001°47'0 0.0
2015-Sep-01 10:33N 46°30' W 001°47'0 0.0
2015-Sep-01 09:33N 46°30' W 001°47'0 0.0
2015-Sep-01 08:34N 46°30' W 001°47'0 0.0
2015-Sep-01 07:33N 46°30' W 001°47'0 0.0
2015-Sep-01 06:34N 46°30' W 001°47'0 0.0
2015-Sep-01 05:33N 46°30' W 001°47'3 3.4
2015-Sep-01 04:34N 46°27' W 001°45'8 7.7
2015-Sep-01 03:33N 46°22' W 001°36'8 7.3
2015-Sep-01 02:32N 46°17' W 001°28'7 7.1
2015-Sep-01 01:34N 46°14' W 001°20'6 6.4
2015-Sep-01 00:34N 46°09' W 001°13'1 0.6
2015-Aug-31 23:33N 46°09' W 001°14'8 7.6
2015-Aug-31 22:34N 46°07' W 001°25'11 2.4
2015-Aug-31 18:04N 46°08' W 001°40'4 2.2
2015-Aug-31 16:12N 46°12' W 001°38'2 3.4
2015-Aug-31 15:33N 46°11' W 001°41'12 1.7
2015-Aug-31 08:34N 46°01' W 001°32'3 3.4
2015-Aug-31 07:34N 46°03' W 001°36'2 2.5
2015-Aug-31 06:34N 46°05' W 001°37'4 4.0
2015-Aug-31 05:32N 46°02' W 001°33'1 0.8
2015-Aug-31 04:34N 46°03' W 001°34'3 3.3
2015-Aug-31 03:34N 46°06' W 001°36'4 3.0
2015-Aug-31 02:08N 46°09' W 001°40'5 3.2
2015-Aug-31 00:34N 46°04' W 001°43'3 3.5
2015-Aug-30 23:33N 46°03' W 001°48'2 1.9
2015-Aug-30 22:34N 46°05' W 001°48'3 3.3
2015-Aug-30 21:34N 46°04' W 001°43'3 3.0
2015-Aug-30 20:31N 46°02' W 001°40'4 3.8
2015-Aug-30 19:33N 46°00' W 001°35'3 2.8
2015-Aug-30 18:34N 46°03' W 001°33'3 3.4
2015-Aug-30 17:33N 46°04' W 001°37'2 1.5
2015-Aug-30 16:23N 46°02' W 001°37'1 1.2
2015-Aug-30 15:18N 46°01' W 001°36'3 3.7
2015-Aug-30 14:30N 46°03' W 001°39'3 2.7
2015-Aug-30 13:33N 46°04' W 001°36'1 1.4
2015-Aug-30 12:33N 46°04' W 001°38'4 3.4
2015-Aug-30 11:21N 46°01' W 001°34'2 2.5
2015-Aug-30 10:32N 46°02' W 001°31'3 3.3
2015-Aug-30 09:33N 46°04' W 001°35'0 0.1
2015-Aug-30 05:30N 46°04' W 001°34'8 8.0
2015-Aug-30 04:33N 46°06' W 001°24'8 7.9
2015-Aug-30 03:33N 46°09' W 001°13'0 0.1
2015-Aug-30 02:34N 46°09' W 001°13'0 0.4
2015-Aug-30 01:33N 46°09' W 001°14'10 9.9
2015-Aug-30 00:34N 46°05' W 001°27'4 4.4
2015-Aug-29 23:34N 46°04' W 001°33'2 2.2
2015-Aug-29 22:34N 46°06' W 001°32'3 2.5
2015-Aug-29 21:33N 46°04' W 001°30'3 3.3
2015-Aug-29 20:34N 46°01' W 001°32'2 2.3
2015-Aug-29 19:34N 46°01' W 001°35'3 2.8
2015-Aug-29 18:33N 46°04' W 001°37'4 3.6
2015-Aug-29 17:32N 46°02' W 001°32'2 2.0
2015-Aug-29 16:33N 46°01' W 001°34'4 3.4
2015-Aug-29 15:27N 46°03' W 001°38'3 3.0
2015-Aug-29 14:34N 46°04' W 001°34'3 3.1
2015-Aug-29 13:34N 46°01' W 001°32'0 0.1
2015-Aug-29 11:33N 46°01' W 001°32'3 1.2
2015-Aug-29 09:07N 46°00' W 001°36'1 0.5
2015-Aug-29 07:34N 46°00' W 001°37'2 1.9
2015-Aug-29 06:34N 45°60' W 001°35'2 0.9
2015-Aug-29 04:32N 45°59' W 001°37'4 3.8
2015-Aug-29 03:33N 46°01' W 001°32'3 3.2
2015-Aug-29 02:32N 46°03' W 001°35'4 3.6
2015-Aug-29 01:25N 46°06' W 001°39'2 2.7
2015-Aug-29 00:32N 46°09' W 001°40'3 2.0
2015-Aug-28 23:11N 46°07' W 001°37'2 3.5
2015-Aug-28 22:34N 46°08' W 001°40'8 2.1
2015-Aug-28 18:34N 46°01' W 001°33'4 3.1
2015-Aug-28 17:06N 46°02' W 001°39'8 0.6
2015-Aug-28 04:05N 46°08' W 001°47'2 3.4
2015-Aug-28 03:33N 46°09' W 001°49'3 3.4
2015-Aug-28 02:33N 46°12' W 001°51'5 4.7
2015-Aug-28 01:34N 46°17' W 001°51'9 9.4
2015-Aug-28 00:33N 46°26' W 001°48'4 4.2
2015-Aug-27 23:34N 46°30' W 001°47'1 0.9
2015-Aug-27 22:34N 46°29' W 001°47'9 8.6
2015-Aug-27 21:34N 46°21' W 001°51'2 1.6
2015-Aug-27 20:34N 46°22' W 001°50'3 2.9
2015-Aug-27 19:33N 46°22' W 001°54'3 3.3
2015-Aug-27 18:33N 46°19' W 001°52'3 3.5
2015-Aug-27 17:34N 46°16' W 001°49'3 2.8
2015-Aug-27 16:33N 46°14' W 001°47'3 1.3
2015-Aug-27 14:30N 46°15' W 001°44'3 3.1
2015-Aug-27 13:33N 46°15' W 001°48'0 0.0
2015-Aug-27 11:34N 46°15' W 001°48'4 3.5
2015-Aug-27 10:33N 46°18' W 001°50'3 2.9
2015-Aug-27 09:34N 46°21' W 001°51'2 1.6
2015-Aug-27 08:33N 46°22' W 001°50'4 3.5
2015-Aug-27 07:34N 46°19' W 001°48'2 1.9
2015-Aug-27 06:34N 46°20' W 001°50'3 2.8
2015-Aug-27 05:33N 46°22' W 001°52'3 2.7
2015-Aug-27 04:34N 46°21' W 001°49'3 3.0
2015-Aug-27 03:34N 46°18' W 001°48'3 2.7
2015-Aug-27 02:34N 46°19' W 001°51'3 2.8
2015-Aug-27 01:34N 46°22' W 001°52'2 2.4
2015-Aug-27 00:34N 46°22' W 001°49'3 3.2
2015-Aug-26 23:34N 46°19' W 001°48'3 3.2
2015-Aug-26 22:34N 46°17' W 001°51'2 2.1
2015-Aug-26 21:33N 46°19' W 001°53'2 2.4
2015-Aug-26 20:34N 46°21' W 001°53'3 3.2
2015-Aug-26 19:33N 46°18' W 001°50'3 3.2
2015-Aug-26 18:34N 46°20' W 001°46'3 2.9
2015-Aug-26 17:33N 46°22' W 001°42'4 3.5
2015-Aug-26 16:34N 46°21' W 001°37'1 1.1
2015-Aug-26 15:34N 46°21' W 001°36'3 3.3
2015-Aug-26 14:34N 46°21' W 001°40'3 3.1
2015-Aug-26 13:34N 46°22' W 001°45'3 2.6
2015-Aug-26 12:33N 46°20' W 001°43'4 3.9
2015-Aug-26 11:34N 46°16' W 001°44'4 3.8
2015-Aug-26 10:32N 46°12' W 001°42'2 1.2
2015-Aug-26 08:34N 46°11' W 001°40'3 3.2
2015-Aug-26 07:34N 46°13' W 001°42'4 3.5
2015-Aug-26 06:34N 46°16' W 001°44'4 3.7
2015-Aug-26 05:33N 46°20' W 001°43'7 7.5
2015-Aug-26 04:34N 46°27' W 001°46'3 0.1
2015-Aug-24 09:20N 46°30' W 001°48'0 0.0
2015-Aug-24 08:33N 46°30' W 001°48'0 0.0
2015-Aug-24 07:33N 46°30' W 001°48'0 0.2
2015-Aug-24 06:33N 46°30' W 001°47'  
Track history (hours):
 
Tides and Currents Weather Stations Pressure Air Temp Water Temp Dewpoint Dewpoint Depression Visibility Wind Speed Wind Dir Waves Ship Positions

F/v_l'omerta

Last reported at 2015-Sep-02 10:25 UTC. Time now 2015-Sep-02 14:51 UTC.
Position N 46°30' W 001°47'.

Length 18 m.

Type: Fishing. MMSI: 227903000.

Date/timePositionNaut miles runAvg speedWind from/ knotsBaromVisibWave heightAir tempDewpointWater temp
2015-Sep-02 10:25N 46°30' W 001°47'0 0.0
2015-Sep-02 09:33N 46°30' W 001°47'0 0.0
2015-Sep-02 08:33N 46°30' W 001°47'0 0.0
2015-Sep-02 07:33N 46°30' W 001°47'0 0.0
2015-Sep-01 11:33N 46°30' W 001°47'0 0.0
2015-Sep-01 10:33N 46°30' W 001°47'0 0.0
2015-Sep-01 09:33N 46°30' W 001°47'0 0.0
2015-Sep-01 08:34N 46°30' W 001°47'0 0.0
2015-Sep-01 07:33N 46°30' W 001°47'0 0.0
2015-Sep-01 06:34N 46°30' W 001°47'0 0.0
2015-Sep-01 05:33N 46°30' W 001°47'3 3.4
2015-Sep-01 04:34N 46°27' W 001°45'8 7.7
2015-Sep-01 03:33N 46°22' W 001°36'8 7.3
2015-Sep-01 02:32N 46°17' W 001°28'7 7.1
2015-Sep-01 01:34N 46°14' W 001°20'6 6.4
2015-Sep-01 00:34N 46°09' W 001°13'1 0.6
2015-Aug-31 23:33N 46°09' W 001°14'8 7.6
2015-Aug-31 22:34N 46°07' W 001°25'11 2.4
2015-Aug-31 18:04N 46°08' W 001°40'4 2.2
2015-Aug-31 16:12N 46°12' W 001°38'2 3.4
2015-Aug-31 15:33N 46°11' W 001°41'12 1.7
2015-Aug-31 08:34N 46°01' W 001°32'3 3.4
2015-Aug-31 07:34N 46°03' W 001°36'2 2.5
2015-Aug-31 06:34N 46°05' W 001°37'4 4.0
2015-Aug-31 05:32N 46°02' W 001°33'1 0.8
2015-Aug-31 04:34N 46°03' W 001°34'3 3.3
2015-Aug-31 03:34N 46°06' W 001°36'4 3.0
2015-Aug-31 02:08N 46°09' W 001°40'5 3.2
2015-Aug-31 00:34N 46°04' W 001°43'3 3.5
2015-Aug-30 23:33N 46°03' W 001°48'2 1.9
2015-Aug-30 22:34N 46°05' W 001°48'3 3.3
2015-Aug-30 21:34N 46°04' W 001°43'3 3.0
2015-Aug-30 20:31N 46°02' W 001°40'4 3.8
2015-Aug-30 19:33N 46°00' W 001°35'3 2.8
2015-Aug-30 18:34N 46°03' W 001°33'3 3.4
2015-Aug-30 17:33N 46°04' W 001°37'2 1.5
2015-Aug-30 16:23N 46°02' W 001°37'1 1.2
2015-Aug-30 15:18N 46°01' W 001°36'3 3.7
2015-Aug-30 14:30N 46°03' W 001°39'3 2.7
2015-Aug-30 13:33N 46°04' W 001°36'1 1.4
2015-Aug-30 12:33N 46°04' W 001°38'4 3.4
2015-Aug-30 11:21N 46°01' W 001°34'2 2.5
2015-Aug-30 10:32N 46°02' W 001°31'3 3.3
2015-Aug-30 09:33N 46°04' W 001°35'0 0.1
2015-Aug-30 05:30N 46°04' W 001°34'8 8.0
2015-Aug-30 04:33N 46°06' W 001°24'8 7.9
2015-Aug-30 03:33N 46°09' W 001°13'0 0.1
2015-Aug-30 02:34N 46°09' W 001°13'0 0.4
2015-Aug-30 01:33N 46°09' W 001°14'10 9.9
2015-Aug-30 00:34N 46°05' W 001°27'4 4.4
2015-Aug-29 23:34N 46°04' W 001°33'2 2.2
2015-Aug-29 22:34N 46°06' W 001°32'3 2.5
2015-Aug-29 21:33N 46°04' W 001°30'3 3.3
2015-Aug-29 20:34N 46°01' W 001°32'2 2.3
2015-Aug-29 19:34N 46°01' W 001°35'3 2.8
2015-Aug-29 18:33N 46°04' W 001°37'4 3.6
2015-Aug-29 17:32N 46°02' W 001°32'2 2.0
2015-Aug-29 16:33N 46°01' W 001°34'4 3.4
2015-Aug-29 15:27N 46°03' W 001°38'3 3.0
2015-Aug-29 14:34N 46°04' W 001°34'3 3.1
2015-Aug-29 13:34N 46°01' W 001°32'0 0.1
2015-Aug-29 11:33N 46°01' W 001°32'3 1.2
2015-Aug-29 09:07N 46°00' W 001°36'1 0.5
2015-Aug-29 07:34N 46°00' W 001°37'2 1.9
2015-Aug-29 06:34N 45°60' W 001°35'2 0.9
2015-Aug-29 04:32N 45°59' W 001°37'4 3.8
2015-Aug-29 03:33N 46°01' W 001°32'3 3.2
2015-Aug-29 02:32N 46°03' W 001°35'4 3.6
2015-Aug-29 01:25N 46°06' W 001°39'2 2.7
2015-Aug-29 00:32N 46°09' W 001°40'3 2.0
2015-Aug-28 23:11N 46°07' W 001°37'2 3.5
2015-Aug-28 22:34N 46°08' W 001°40'8 2.1
2015-Aug-28 18:34N 46°01' W 001°33'4 3.1
2015-Aug-28 17:06N 46°02' W 001°39'8 0.6
2015-Aug-28 04:05N 46°08' W 001°47'2 3.4
2015-Aug-28 03:33N 46°09' W 001°49'3 3.4
2015-Aug-28 02:33N 46°12' W 001°51'5 4.7
2015-Aug-28 01:34N 46°17' W 001°51'9 9.4
2015-Aug-28 00:33N 46°26' W 001°48'4 4.2
2015-Aug-27 23:34N 46°30' W 001°47'1 0.9
2015-Aug-27 22:34N 46°29' W 001°47'9 8.6
2015-Aug-27 21:34N 46°21' W 001°51'2 1.6
2015-Aug-27 20:34N 46°22' W 001°50'3 2.9
2015-Aug-27 19:33N 46°22' W 001°54'3 3.3
2015-Aug-27 18:33N 46°19' W 001°52'3 3.5
2015-Aug-27 17:34N 46°16' W 001°49'3 2.8
2015-Aug-27 16:33N 46°14' W 001°47'3 1.3
2015-Aug-27 14:30N 46°15' W 001°44'3 3.1
2015-Aug-27 13:33N 46°15' W 001°48'0 0.0
2015-Aug-27 11:34N 46°15' W 001°48'4 3.5
2015-Aug-27 10:33N 46°18' W 001°50'3 2.9
2015-Aug-27 09:34N 46°21' W 001°51'2 1.6
2015-Aug-27 08:33N 46°22' W 001°50'4 3.5
2015-Aug-27 07:34N 46°19' W 001°48'2 1.9
2015-Aug-27 06:34N 46°20' W 001°50'3 2.8
2015-Aug-27 05:33N 46°22' W 001°52'3 2.7
2015-Aug-27 04:34N 46°21' W 001°49'3 3.0
2015-Aug-27 03:34N 46°18' W 001°48'3 2.7
2015-Aug-27 02:34N 46°19' W 001°51'3 2.8
2015-Aug-27 01:34N 46°22' W 001°52'2 2.4
2015-Aug-27 00:34N 46°22' W 001°49'3 3.2
2015-Aug-26 23:34N 46°19' W 001°48'3 3.2
2015-Aug-26 22:34N 46°17' W 001°51'2 2.1
2015-Aug-26 21:33N 46°19' W 001°53'2 2.4
2015-Aug-26 20:34N 46°21' W 001°53'3 3.2
2015-Aug-26 19:33N 46°18' W 001°50'3 3.2
2015-Aug-26 18:34N 46°20' W 001°46'3 2.9
2015-Aug-26 17:33N 46°22' W 001°42'4 3.5
2015-Aug-26 16:34N 46°21' W 001°37'1 1.1
2015-Aug-26 15:34N 46°21' W 001°36'3 3.3
2015-Aug-26 14:34N 46°21' W 001°40'3 3.1
2015-Aug-26 13:34N 46°22' W 001°45'3 2.6
2015-Aug-26 12:33N 46°20' W 001°43'4 3.9
2015-Aug-26 11:34N 46°16' W 001°44'4 3.8
2015-Aug-26 10:32N 46°12' W 001°42'2 1.2
2015-Aug-26 08:34N 46°11' W 001°40'3 3.2
2015-Aug-26 07:34N 46°13' W 001°42'4 3.5
2015-Aug-26 06:34N 46°16' W 001°44'4 3.7
2015-Aug-26 05:33N 46°20' W 001°43'7 7.5
2015-Aug-26 04:34N 46°27' W 001°46'3 0.1
2015-Aug-24 09:20N 46°30' W 001°48'0 0.0
2015-Aug-24 08:33N 46°30' W 001°48'0 0.0
2015-Aug-24 07:33N 46°30' W 001°48'0 0.2
2015-Aug-24 06:33N 46°30' W 001°47'  

Dump ship's entire track history